sensor_id;sensor_type;location;lat;lon;timestamp;P1;durP1;ratioP1;P2;durP2;ratioP2
38611;SDS011;24368;52.156;20.788;2022-12-11T00:01:15;36.50;;;23.00;;
38611;SDS011;24368;52.156;20.788;2022-12-11T00:06:19;42.30;;;25.60;;
38611;SDS011;24368;52.156;20.788;2022-12-11T00:11:22;34.20;;;22.10;;
38611;SDS011;24368;52.156;20.788;2022-12-11T00:16:23;38.40;;;23.40;;
38611;SDS011;24368;52.156;20.788;2022-12-11T00:21:24;38.20;;;24.90;;
38611;SDS011;24368;52.156;20.788;2022-12-11T00:26:25;37.50;;;23.30;;
38611;SDS011;24368;52.156;20.788;2022-12-11T00:31:27;41.40;;;25.40;;
38611;SDS011;24368;52.156;20.788;2022-12-11T00:36:28;42.20;;;26.10;;
38611;SDS011;24368;52.156;20.788;2022-12-11T00:41:29;40.10;;;21.90;;
38611;SDS011;24368;52.156;20.788;2022-12-11T00:46:30;36.80;;;23.40;;
38611;SDS011;24368;52.156;20.788;2022-12-11T00:51:31;36.70;;;21.80;;
38611;SDS011;24368;52.156;20.788;2022-12-11T00:56:32;38.70;;;21.30;;
38611;SDS011;24368;52.156;20.788;2022-12-11T01:01:34;32.50;;;20.80;;
38611;SDS011;24368;52.156;20.788;2022-12-11T01:06:35;34.10;;;21.70;;
38611;SDS011;24368;52.156;20.788;2022-12-11T01:11:36;31.70;;;21.40;;
38611;SDS011;24368;52.156;20.788;2022-12-11T01:16:38;33.20;;;20.60;;
38611;SDS011;24368;52.156;20.788;2022-12-11T01:21:39;35.50;;;22.60;;
38611;SDS011;24368;52.156;20.788;2022-12-11T01:26:40;33.20;;;21.40;;
38611;SDS011;24368;52.156;20.788;2022-12-11T01:31:41;35.00;;;20.80;;
38611;SDS011;24368;52.156;20.788;2022-12-11T01:36:42;33.90;;;20.30;;
38611;SDS011;24368;52.156;20.788;2022-12-11T01:41:43;31.60;;;19.80;;
38611;SDS011;24368;52.156;20.788;2022-12-11T01:46:44;28.20;;;17.60;;
38611;SDS011;24368;52.156;20.788;2022-12-11T01:51:50;28.30;;;17.60;;
38611;SDS011;24368;52.156;20.788;2022-12-11T01:56:57;28.50;;;17.50;;
38611;SDS011;24368;52.156;20.788;2022-12-11T02:02:05;26.80;;;19.00;;
38611;SDS011;24368;52.156;20.788;2022-12-11T02:07:09;32.70;;;21.20;;
38611;SDS011;24368;52.156;20.788;2022-12-11T02:17:34;28.50;;;17.50;;
38611;SDS011;24368;52.156;20.788;2022-12-11T02:22:57;27.90;;;16.90;;
38611;SDS011;24368;52.156;20.788;2022-12-11T02:33:21;22.40;;;15.40;;
38611;SDS011;24368;52.156;20.788;2022-12-11T02:38:33;23.60;;;16.00;;
38611;SDS011;24368;52.156;20.788;2022-12-11T02:48:40;26.00;;;18.30;;
38611;SDS011;24368;52.156;20.788;2022-12-11T02:53:42;26.60;;;18.20;;
38611;SDS011;24368;52.156;20.788;2022-12-11T02:58:46;21.00;;;15.10;;
38611;SDS011;24368;52.156;20.788;2022-12-11T03:03:52;30.10;;;17.40;;
38611;SDS011;24368;52.156;20.788;2022-12-11T03:08:54;32.50;;;21.70;;
38611;SDS011;24368;52.156;20.788;2022-12-11T03:13:55;38.20;;;24.90;;
38611;SDS011;24368;52.156;20.788;2022-12-11T03:29:36;35.30;;;22.00;;
38611;SDS011;24368;52.156;20.788;2022-12-11T03:34:43;40.20;;;23.40;;
38611;SDS011;24368;52.156;20.788;2022-12-11T03:39:50;34.40;;;21.40;;
38611;SDS011;24368;52.156;20.788;2022-12-11T03:44:55;32.40;;;19.50;;
38611;SDS011;24368;52.156;20.788;2022-12-11T03:49:59;33.90;;;20.60;;
38611;SDS011;24368;52.156;20.788;2022-12-11T03:55:03;33.10;;;22.70;;
38611;SDS011;24368;52.156;20.788;2022-12-11T04:00:08;37.60;;;21.30;;
38611;SDS011;24368;52.156;20.788;2022-12-11T04:05:11;35.30;;;21.00;;
38611;SDS011;24368;52.156;20.788;2022-12-11T04:10:12;38.60;;;23.40;;
38611;SDS011;24368;52.156;20.788;2022-12-11T04:15:13;38.30;;;22.80;;
38611;SDS011;24368;52.156;20.788;2022-12-11T04:20:16;42.30;;;21.70;;
38611;SDS011;24368;52.156;20.788;2022-12-11T04:25:53;36.80;;;21.10;;
38611;SDS011;24368;52.156;20.788;2022-12-11T04:30:54;34.60;;;21.30;;
38611;SDS011;24368;52.156;20.788;2022-12-11T04:35:59;39.10;;;21.30;;
38611;SDS011;24368;52.156;20.788;2022-12-11T04:41:01;33.50;;;21.00;;
38611;SDS011;24368;52.156;20.788;2022-12-11T04:46:17;30.10;;;19.90;;
38611;SDS011;24368;52.156;20.788;2022-12-11T04:51:20;32.10;;;19.40;;
38611;SDS011;24368;52.156;20.788;2022-12-11T04:56:21;32.70;;;20.10;;
38611;SDS011;24368;52.156;20.788;2022-12-11T05:01:22;35.00;;;20.40;;
38611;SDS011;24368;52.156;20.788;2022-12-11T05:06:23;33.20;;;21.20;;
38611;SDS011;24368;52.156;20.788;2022-12-11T05:11:24;35.90;;;20.60;;
38611;SDS011;24368;52.156;20.788;2022-12-11T05:16:25;31.60;;;19.60;;
38611;SDS011;24368;52.156;20.788;2022-12-11T05:21:26;33.80;;;21.30;;
38611;SDS011;24368;52.156;20.788;2022-12-11T05:26:27;37.70;;;22.90;;
38611;SDS011;24368;52.156;20.788;2022-12-11T05:31:28;35.50;;;22.00;;
38611;SDS011;24368;52.156;20.788;2022-12-11T05:36:31;36.50;;;21.30;;
38611;SDS011;24368;52.156;20.788;2022-12-11T05:41:33;29.30;;;19.60;;
38611;SDS011;24368;52.156;20.788;2022-12-11T05:46:34;29.30;;;19.10;;
38611;SDS011;24368;52.156;20.788;2022-12-11T05:51:38;28.40;;;19.50;;
38611;SDS011;24368;52.156;20.788;2022-12-11T05:56:40;29.00;;;19.40;;
38611;SDS011;24368;52.156;20.788;2022-12-11T06:01:42;24.30;;;17.60;;
38611;SDS011;24368;52.156;20.788;2022-12-11T06:06:43;26.00;;;17.40;;
38611;SDS011;24368;52.156;20.788;2022-12-11T06:11:44;25.80;;;16.70;;
38611;SDS011;24368;52.156;20.788;2022-12-11T06:16:45;23.50;;;17.00;;
38611;SDS011;24368;52.156;20.788;2022-12-11T06:21:46;25.50;;;16.40;;
38611;SDS011;24368;52.156;20.788;2022-12-11T06:26:48;23.30;;;16.20;;
38611;SDS011;24368;52.156;20.788;2022-12-11T06:31:49;21.10;;;15.50;;
38611;SDS011;24368;52.156;20.788;2022-12-11T06:36:50;24.00;;;17.00;;
38611;SDS011;24368;52.156;20.788;2022-12-11T06:41:51;24.00;;;16.60;;
38611;SDS011;24368;52.156;20.788;2022-12-11T06:46:52;22.00;;;14.60;;
38611;SDS011;24368;52.156;20.788;2022-12-11T06:51:53;21.40;;;14.70;;
38611;SDS011;24368;52.156;20.788;2022-12-11T06:56:53;18.40;;;12.80;;
38611;SDS011;24368;52.156;20.788;2022-12-11T07:01:55;20.20;;;14.10;;
38611;SDS011;24368;52.156;20.788;2022-12-11T07:06:56;22.20;;;13.70;;
38611;SDS011;24368;52.156;20.788;2022-12-11T07:11:57;19.50;;;12.70;;
38611;SDS011;24368;52.156;20.788;2022-12-11T07:16:58;16.50;;;12.40;;
38611;SDS011;24368;52.156;20.788;2022-12-11T07:21:59;17.60;;;12.10;;
38611;SDS011;24368;52.156;20.788;2022-12-11T07:27:00;14.60;;;10.40;;
38611;SDS011;24368;52.156;20.788;2022-12-11T07:32:01;15.80;;;10.90;;
38611;SDS011;24368;52.156;20.788;2022-12-11T07:37:02;14.30;;;11.30;;
38611;SDS011;24368;52.156;20.788;2022-12-11T07:42:03;15.10;;;11.20;;
38611;SDS011;24368;52.156;20.788;2022-12-11T07:47:04;16.00;;;11.90;;
38611;SDS011;24368;52.156;20.788;2022-12-11T07:52:05;16.50;;;11.10;;
38611;SDS011;24368;52.156;20.788;2022-12-11T07:57:06;17.30;;;12.70;;
38611;SDS011;24368;52.156;20.788;2022-12-11T08:02:10;18.20;;;12.90;;
38611;SDS011;24368;52.156;20.788;2022-12-11T08:07:11;17.10;;;11.30;;
38611;SDS011;24368;52.156;20.788;2022-12-11T08:12:12;18.10;;;12.00;;
38611;SDS011;24368;52.156;20.788;2022-12-11T08:17:13;17.50;;;12.00;;
38611;SDS011;24368;52.156;20.788;2022-12-11T08:22:15;17.50;;;12.10;;
38611;SDS011;24368;52.156;20.788;2022-12-11T08:27:16;18.40;;;12.90;;
38611;SDS011;24368;52.156;20.788;2022-12-11T08:32:17;17.70;;;12.20;;
38611;SDS011;24368;52.156;20.788;2022-12-11T08:37:18;18.00;;;11.70;;
38611;SDS011;24368;52.156;20.788;2022-12-11T08:42:19;14.70;;;10.30;;
38611;SDS011;24368;52.156;20.788;2022-12-11T08:47:20;13.40;;;9.90;;
38611;SDS011;24368;52.156;20.788;2022-12-11T08:52:22;19.40;;;12.70;;
38611;SDS011;24368;52.156;20.788;2022-12-11T08:57:23;16.70;;;11.50;;
38611;SDS011;24368;52.156;20.788;2022-12-11T09:02:24;18.90;;;12.80;;
38611;SDS011;24368;52.156;20.788;2022-12-11T09:07:25;20.50;;;12.30;;
38611;SDS011;24368;52.156;20.788;2022-12-11T09:12:27;15.90;;;11.70;;
38611;SDS011;24368;52.156;20.788;2022-12-11T09:17:28;15.80;;;11.30;;
38611;SDS011;24368;52.156;20.788;2022-12-11T09:22:31;18.40;;;12.30;;
38611;SDS011;24368;52.156;20.788;2022-12-11T09:27:33;17.10;;;12.30;;
38611;SDS011;24368;52.156;20.788;2022-12-11T09:32:35;14.70;;;10.90;;
38611;SDS011;24368;52.156;20.788;2022-12-11T09:37:36;17.60;;;11.90;;
38611;SDS011;24368;52.156;20.788;2022-12-11T09:42:46;15.20;;;11.40;;
38611;SDS011;24368;52.156;20.788;2022-12-11T09:47:50;15.20;;;10.40;;
38611;SDS011;24368;52.156;20.788;2022-12-11T09:52:58;16.50;;;10.70;;
38611;SDS011;24368;52.156;20.788;2022-12-11T09:58:32;26.10;;;11.80;;
38611;SDS011;24368;52.156;20.788;2022-12-11T10:19:31;15.40;;;11.30;;
38611;SDS011;24368;52.156;20.788;2022-12-11T10:24:33;17.00;;;13.20;;
38611;SDS011;24368;52.156;20.788;2022-12-11T10:29:39;20.10;;;13.10;;
38611;SDS011;24368;52.156;20.788;2022-12-11T10:34:41;19.20;;;12.20;;
38611;SDS011;24368;52.156;20.788;2022-12-11T10:39:43;16.50;;;11.00;;
38611;SDS011;24368;52.156;20.788;2022-12-11T10:44:55;18.00;;;11.80;;
38611;SDS011;24368;52.156;20.788;2022-12-11T10:49:57;14.60;;;9.90;;
38611;SDS011;24368;52.156;20.788;2022-12-11T10:55:02;13.90;;;10.40;;
38611;SDS011;24368;52.156;20.788;2022-12-11T11:00:36;15.90;;;10.60;;
38611;SDS011;24368;52.156;20.788;2022-12-11T11:05:39;18.70;;;12.70;;
38611;SDS011;24368;52.156;20.788;2022-12-11T11:16:10;17.10;;;11.50;;
38611;SDS011;24368;52.156;20.788;2022-12-11T11:21:15;19.50;;;14.00;;
38611;SDS011;24368;52.156;20.788;2022-12-11T11:26:19;20.20;;;14.00;;
38611;SDS011;24368;52.156;20.788;2022-12-11T11:31:32;21.20;;;13.00;;
38611;SDS011;24368;52.156;20.788;2022-12-11T11:36:35;17.60;;;12.20;;
38611;SDS011;24368;52.156;20.788;2022-12-11T11:46:53;21.80;;;14.20;;
38611;SDS011;24368;52.156;20.788;2022-12-11T11:52:20;19.70;;;14.00;;
38611;SDS011;24368;52.156;20.788;2022-12-11T11:57:31;17.60;;;13.20;;
38611;SDS011;24368;52.156;20.788;2022-12-11T12:02:39;19.90;;;14.30;;
38611;SDS011;24368;52.156;20.788;2022-12-11T12:12:52;16.90;;;12.60;;
38611;SDS011;24368;52.156;20.788;2022-12-11T12:18:26;17.10;;;12.60;;
38611;SDS011;24368;52.156;20.788;2022-12-11T12:44:58;20.00;;;13.20;;
38611;SDS011;24368;52.156;20.788;2022-12-11T12:50:11;16.20;;;11.40;;
38611;SDS011;24368;52.156;20.788;2022-12-11T12:55:25;16.00;;;12.00;;
38611;SDS011;24368;52.156;20.788;2022-12-11T13:00:35;25.00;;;18.30;;
38611;SDS011;24368;52.156;20.788;2022-12-11T13:05:39;23.20;;;16.40;;
38611;SDS011;24368;52.156;20.788;2022-12-11T13:10:44;13.60;;;9.20;;
38611;SDS011;24368;52.156;20.788;2022-12-11T13:15:45;12.00;;;9.30;;
38611;SDS011;24368;52.156;20.788;2022-12-11T13:20:47;15.60;;;11.40;;
38611;SDS011;24368;52.156;20.788;2022-12-11T13:25:55;13.20;;;10.40;;
38611;SDS011;24368;52.156;20.788;2022-12-11T13:30:59;11.60;;;9.70;;
38611;SDS011;24368;52.156;20.788;2022-12-11T13:41:11;11.20;;;9.00;;
38611;SDS011;24368;52.156;20.788;2022-12-11T13:46:13;14.40;;;10.60;;
38611;SDS011;24368;52.156;20.788;2022-12-11T13:51:20;12.00;;;10.00;;
38611;SDS011;24368;52.156;20.788;2022-12-11T13:56:23;12.40;;;9.40;;
38611;SDS011;24368;52.156;20.788;2022-12-11T14:01:31;12.30;;;9.50;;
38611;SDS011;24368;52.156;20.788;2022-12-11T14:06:34;14.80;;;10.50;;
38611;SDS011;24368;52.156;20.788;2022-12-11T14:11:41;12.30;;;10.20;;
38611;SDS011;24368;52.156;20.788;2022-12-11T14:16:45;13.10;;;10.90;;
38611;SDS011;24368;52.156;20.788;2022-12-11T14:21:54;13.60;;;12.20;;
38611;SDS011;24368;52.156;20.788;2022-12-11T14:32:04;15.90;;;11.10;;
38611;SDS011;24368;52.156;20.788;2022-12-11T14:37:06;15.20;;;11.60;;
38611;SDS011;24368;52.156;20.788;2022-12-11T14:42:13;17.00;;;11.90;;
38611;SDS011;24368;52.156;20.788;2022-12-11T14:47:53;16.90;;;12.20;;
38611;SDS011;24368;52.156;20.788;2022-12-11T14:53:11;11.60;;;10.10;;
38611;SDS011;24368;52.156;20.788;2022-12-11T15:03:36;15.20;;;11.80;;
38611;SDS011;24368;52.156;20.788;2022-12-11T15:08:39;13.80;;;10.20;;
38611;SDS011;24368;52.156;20.788;2022-12-11T15:18:56;9.10;;;7.00;;
38611;SDS011;24368;52.156;20.788;2022-12-11T15:23:59;10.10;;;7.20;;
38611;SDS011;24368;52.156;20.788;2022-12-11T15:29:05;12.00;;;9.10;;
38611;SDS011;24368;52.156;20.788;2022-12-11T15:34:23;13.20;;;9.70;;
38611;SDS011;24368;52.156;20.788;2022-12-11T15:39:24;9.70;;;8.20;;
38611;SDS011;24368;52.156;20.788;2022-12-11T15:44:25;8.10;;;6.90;;
38611;SDS011;24368;52.156;20.788;2022-12-11T15:49:26;9.70;;;7.00;;
38611;SDS011;24368;52.156;20.788;2022-12-11T15:54:27;11.00;;;8.70;;
38611;SDS011;24368;52.156;20.788;2022-12-11T15:59:28;13.40;;;9.90;;
38611;SDS011;24368;52.156;20.788;2022-12-11T16:04:30;11.40;;;9.00;;
38611;SDS011;24368;52.156;20.788;2022-12-11T16:09:31;11.20;;;8.60;;
38611;SDS011;24368;52.156;20.788;2022-12-11T16:14:34;12.60;;;8.70;;
38611;SDS011;24368;52.156;20.788;2022-12-11T16:19:38;12.40;;;9.20;;
38611;SDS011;24368;52.156;20.788;2022-12-11T16:24:40;10.80;;;7.80;;
38611;SDS011;24368;52.156;20.788;2022-12-11T16:29:42;10.90;;;9.20;;
38611;SDS011;24368;52.156;20.788;2022-12-11T16:34:43;14.30;;;10.10;;
38611;SDS011;24368;52.156;20.788;2022-12-11T16:39:44;14.10;;;11.00;;
38611;SDS011;24368;52.156;20.788;2022-12-11T16:44:46;12.60;;;8.60;;
38611;SDS011;24368;52.156;20.788;2022-12-11T16:49:48;8.80;;;7.20;;
38611;SDS011;24368;52.156;20.788;2022-12-11T16:54:50;12.20;;;9.00;;
38611;SDS011;24368;52.156;20.788;2022-12-11T16:59:51;12.40;;;8.90;;
38611;SDS011;24368;52.156;20.788;2022-12-11T17:04:52;15.10;;;11.20;;
38611;SDS011;24368;52.156;20.788;2022-12-11T17:09:53;14.00;;;10.10;;
38611;SDS011;24368;52.156;20.788;2022-12-11T17:14:54;13.70;;;9.50;;
38611;SDS011;24368;52.156;20.788;2022-12-11T17:19:56;16.10;;;11.40;;
38611;SDS011;24368;52.156;20.788;2022-12-11T17:24:57;15.70;;;11.00;;
38611;SDS011;24368;52.156;20.788;2022-12-11T17:29:59;15.50;;;11.30;;
38611;SDS011;24368;52.156;20.788;2022-12-11T17:35:00;14.80;;;11.20;;
38611;SDS011;24368;52.156;20.788;2022-12-11T17:40:01;15.00;;;12.30;;
38611;SDS011;24368;52.156;20.788;2022-12-11T17:45:05;14.00;;;10.60;;
38611;SDS011;24368;52.156;20.788;2022-12-11T17:50:07;18.20;;;14.00;;
38611;SDS011;24368;52.156;20.788;2022-12-11T17:55:08;15.60;;;11.80;;
38611;SDS011;24368;52.156;20.788;2022-12-11T18:00:10;16.70;;;12.40;;
38611;SDS011;24368;52.156;20.788;2022-12-11T18:05:11;16.90;;;12.20;;
38611;SDS011;24368;52.156;20.788;2022-12-11T18:10:12;14.10;;;11.50;;
38611;SDS011;24368;52.156;20.788;2022-12-11T18:15:14;16.40;;;11.30;;
38611;SDS011;24368;52.156;20.788;2022-12-11T18:20:17;14.10;;;10.50;;
38611;SDS011;24368;52.156;20.788;2022-12-11T18:25:19;16.80;;;11.50;;
38611;SDS011;24368;52.156;20.788;2022-12-11T18:30:20;16.40;;;12.40;;
38611;SDS011;24368;52.156;20.788;2022-12-11T18:35:22;14.90;;;11.10;;
38611;SDS011;24368;52.156;20.788;2022-12-11T18:40:25;13.60;;;9.60;;
38611;SDS011;24368;52.156;20.788;2022-12-11T18:45:28;11.80;;;9.40;;
38611;SDS011;24368;52.156;20.788;2022-12-11T18:50:29;14.30;;;10.70;;
38611;SDS011;24368;52.156;20.788;2022-12-11T18:55:31;11.60;;;9.50;;
38611;SDS011;24368;52.156;20.788;2022-12-11T19:00:32;12.10;;;9.70;;
38611;SDS011;24368;52.156;20.788;2022-12-11T19:05:33;12.00;;;9.40;;
38611;SDS011;24368;52.156;20.788;2022-12-11T19:10:39;15.40;;;10.20;;
38611;SDS011;24368;52.156;20.788;2022-12-11T19:15:43;12.10;;;9.50;;
38611;SDS011;24368;52.156;20.788;2022-12-11T19:20:44;12.90;;;10.00;;
38611;SDS011;24368;52.156;20.788;2022-12-11T19:25:47;13.30;;;10.00;;
38611;SDS011;24368;52.156;20.788;2022-12-11T19:30:50;15.60;;;12.00;;
38611;SDS011;24368;52.156;20.788;2022-12-11T19:36:04;16.40;;;12.60;;
38611;SDS011;24368;52.156;20.788;2022-12-11T19:41:12;19.00;;;13.10;;
38611;SDS011;24368;52.156;20.788;2022-12-11T19:46:20;17.40;;;11.50;;
38611;SDS011;24368;52.156;20.788;2022-12-11T19:51:23;15.40;;;12.50;;
38611;SDS011;24368;52.156;20.788;2022-12-11T19:56:28;16.60;;;12.50;;
38611;SDS011;24368;52.156;20.788;2022-12-11T20:01:30;18.40;;;12.90;;
38611;SDS011;24368;52.156;20.788;2022-12-11T20:06:33;18.10;;;13.90;;
38611;SDS011;24368;52.156;20.788;2022-12-11T20:11:36;19.00;;;14.30;;
38611;SDS011;24368;52.156;20.788;2022-12-11T20:16:39;15.90;;;12.00;;
38611;SDS011;24368;52.156;20.788;2022-12-11T20:21:40;14.70;;;11.10;;
38611;SDS011;24368;52.156;20.788;2022-12-11T20:26:42;15.30;;;11.60;;
38611;SDS011;24368;52.156;20.788;2022-12-11T20:31:43;13.10;;;10.40;;
38611;SDS011;24368;52.156;20.788;2022-12-11T20:36:48;15.10;;;11.10;;
38611;SDS011;24368;52.156;20.788;2022-12-11T20:41:51;16.60;;;12.00;;
38611;SDS011;24368;52.156;20.788;2022-12-11T20:46:52;17.20;;;12.20;;
38611;SDS011;24368;52.156;20.788;2022-12-11T20:51:53;19.00;;;12.20;;
38611;SDS011;24368;52.156;20.788;2022-12-11T20:56:54;13.90;;;11.30;;
38611;SDS011;24368;52.156;20.788;2022-12-11T21:01:56;17.40;;;12.10;;
38611;SDS011;24368;52.156;20.788;2022-12-11T21:06:57;15.10;;;11.20;;
38611;SDS011;24368;52.156;20.788;2022-12-11T21:12:00;18.90;;;12.40;;
38611;SDS011;24368;52.156;20.788;2022-12-11T21:17:02;18.10;;;13.90;;
38611;SDS011;24368;52.156;20.788;2022-12-11T21:22:03;16.60;;;10.00;;
38611;SDS011;24368;52.156;20.788;2022-12-11T21:27:05;16.10;;;11.90;;
38611;SDS011;24368;52.156;20.788;2022-12-11T21:32:06;16.10;;;11.70;;
38611;SDS011;24368;52.156;20.788;2022-12-11T21:37:07;18.30;;;12.60;;
38611;SDS011;24368;52.156;20.788;2022-12-11T21:42:08;13.10;;;10.70;;
38611;SDS011;24368;52.156;20.788;2022-12-11T21:47:09;13.50;;;9.80;;
38611;SDS011;24368;52.156;20.788;2022-12-11T21:52:10;14.40;;;11.00;;
38611;SDS011;24368;52.156;20.788;2022-12-11T21:57:11;13.50;;;10.10;;
38611;SDS011;24368;52.156;20.788;2022-12-11T22:02:13;14.00;;;11.00;;
38611;SDS011;24368;52.156;20.788;2022-12-11T22:07:14;18.60;;;13.20;;
38611;SDS011;24368;52.156;20.788;2022-12-11T22:12:19;13.90;;;10.20;;
38611;SDS011;24368;52.156;20.788;2022-12-11T22:17:23;22.30;;;14.30;;
38611;SDS011;24368;52.156;20.788;2022-12-11T22:22:24;13.30;;;10.50;;
38611;SDS011;24368;52.156;20.788;2022-12-11T22:27:25;17.90;;;12.00;;
38611;SDS011;24368;52.156;20.788;2022-12-11T22:32:26;15.90;;;11.90;;
38611;SDS011;24368;52.156;20.788;2022-12-11T22:37:27;17.70;;;13.00;;
38611;SDS011;24368;52.156;20.788;2022-12-11T22:42:28;16.80;;;12.40;;
38611;SDS011;24368;52.156;20.788;2022-12-11T22:47:29;16.00;;;12.60;;
38611;SDS011;24368;52.156;20.788;2022-12-11T22:52:30;18.80;;;12.00;;
38611;SDS011;24368;52.156;20.788;2022-12-11T22:57:34;19.60;;;13.20;;
38611;SDS011;24368;52.156;20.788;2022-12-11T23:02:36;16.50;;;12.40;;
38611;SDS011;24368;52.156;20.788;2022-12-11T23:07:38;19.80;;;14.40;;
38611;SDS011;24368;52.156;20.788;2022-12-11T23:12:39;20.10;;;15.20;;
38611;SDS011;24368;52.156;20.788;2022-12-11T23:17:40;18.70;;;12.40;;
38611;SDS011;24368;52.156;20.788;2022-12-11T23:22:41;17.30;;;12.70;;
38611;SDS011;24368;52.156;20.788;2022-12-11T23:27:42;18.80;;;14.70;;
38611;SDS011;24368;52.156;20.788;2022-12-11T23:32:42;21.00;;;12.90;;
38611;SDS011;24368;52.156;20.788;2022-12-11T23:37:43;24.30;;;18.30;;
38611;SDS011;24368;52.156;20.788;2022-12-11T23:42:45;22.00;;;15.70;;
38611;SDS011;24368;52.156;20.788;2022-12-11T23:47:46;20.50;;;15.20;;
38611;SDS011;24368;52.156;20.788;2022-12-11T23:52:47;22.50;;;15.40;;
38611;SDS011;24368;52.156;20.788;2022-12-11T23:57:48;15.60;;;12.30;;
